sensor_id;sensor_type;location;lat;lon;timestamp;temperature;humidity
4578;DHT22;2301;47.354;8.528;2023-05-07T00:02:12;19.50;76.00
4578;DHT22;2301;47.354;8.528;2023-05-07T00:04:39;19.50;76.20
4578;DHT22;2301;47.354;8.528;2023-05-07T00:07:06;19.50;76.40
4578;DHT22;2301;47.354;8.528;2023-05-07T00:09:33;19.40;76.00
4578;DHT22;2301;47.354;8.528;2023-05-07T00:12:00;19.40;76.00
4578;DHT22;2301;47.354;8.528;2023-05-07T00:14:27;19.40;76.40
4578;DHT22;2301;47.354;8.528;2023-05-07T00:16:55;19.30;76.40
4578;DHT22;2301;47.354;8.528;2023-05-07T00:19:24;19.30;76.50
4578;DHT22;2301;47.354;8.528;2023-05-07T00:21:51;19.20;76.70
4578;DHT22;2301;47.354;8.528;2023-05-07T00:24:19;19.20;77.20
4578;DHT22;2301;47.354;8.528;2023-05-07T00:26:46;19.20;77.40
4578;DHT22;2301;47.354;8.528;2023-05-07T00:29:13;19.30;77.50
4578;DHT22;2301;47.354;8.528;2023-05-07T00:31:40;19.30;77.50
4578;DHT22;2301;47.354;8.528;2023-05-07T00:34:06;19.20;77.40
4578;DHT22;2301;47.354;8.528;2023-05-07T00:36:35;19.20;77.40
4578;DHT22;2301;47.354;8.528;2023-05-07T00:39:02;19.30;77.80
4578;DHT22;2301;47.354;8.528;2023-05-07T00:41:29;19.30;77.30
4578;DHT22;2301;47.354;8.528;2023-05-07T00:43:56;19.20;77.00
4578;DHT22;2301;47.354;8.528;2023-05-07T00:46:23;19.20;77.20
4578;DHT22;2301;47.354;8.528;2023-05-07T00:48:51;19.20;77.50
4578;DHT22;2301;47.354;8.528;2023-05-07T00:51:18;19.10;77.20
4578;DHT22;2301;47.354;8.528;2023-05-07T00:53:47;19.10;77.40
4578;DHT22;2301;47.354;8.528;2023-05-07T00:56:14;19.10;77.70
4578;DHT22;2301;47.354;8.528;2023-05-07T00:58:42;19.00;77.60
4578;DHT22;2301;47.354;8.528;2023-05-07T01:01:09;19.00;77.80
4578;DHT22;2301;47.354;8.528;2023-05-07T01:03:36;19.00;77.90
4578;DHT22;2301;47.354;8.528;2023-05-07T01:06:05;19.10;78.00
4578;DHT22;2301;47.354;8.528;2023-05-07T01:08:32;19.00;77.80
4578;DHT22;2301;47.354;8.528;2023-05-07T01:11:02;19.00;78.50
4578;DHT22;2301;47.354;8.528;2023-05-07T01:13:29;19.00;78.10
4578;DHT22;2301;47.354;8.528;2023-05-07T01:15:56;19.00;77.70
4578;DHT22;2301;47.354;8.528;2023-05-07T01:18:24;19.00;77.70
4578;DHT22;2301;47.354;8.528;2023-05-07T01:20:51;18.90;77.30
4578;DHT22;2301;47.354;8.528;2023-05-07T01:23:20;18.90;77.40
4578;DHT22;2301;47.354;8.528;2023-05-07T01:25:51;18.90;77.70
4578;DHT22;2301;47.354;8.528;2023-05-07T01:28:19;18.80;77.90
4578;DHT22;2301;47.354;8.528;2023-05-07T01:30:49;18.90;78.10
4578;DHT22;2301;47.354;8.528;2023-05-07T01:33:20;18.90;78.10
4578;DHT22;2301;47.354;8.528;2023-05-07T01:35:53;18.80;77.80
4578;DHT22;2301;47.354;8.528;2023-05-07T01:38:22;18.80;77.70
4578;DHT22;2301;47.354;8.528;2023-05-07T01:40:50;18.80;77.60
4578;DHT22;2301;47.354;8.528;2023-05-07T01:43:17;18.80;77.90
4578;DHT22;2301;47.354;8.528;2023-05-07T01:45:45;18.70;77.70
4578;DHT22;2301;47.354;8.528;2023-05-07T01:48:14;18.70;78.10
4578;DHT22;2301;47.354;8.528;2023-05-07T01:50:42;18.80;78.30
4578;DHT22;2301;47.354;8.528;2023-05-07T01:53:10;18.80;78.30
4578;DHT22;2301;47.354;8.528;2023-05-07T01:55:38;18.70;77.90
4578;DHT22;2301;47.354;8.528;2023-05-07T01:58:05;18.60;77.70
4578;DHT22;2301;47.354;8.528;2023-05-07T02:00:32;18.60;77.70
4578;DHT22;2301;47.354;8.528;2023-05-07T02:02:59;18.60;78.10
4578;DHT22;2301;47.354;8.528;2023-05-07T02:05:26;18.60;78.20
4578;DHT22;2301;47.354;8.528;2023-05-07T02:07:53;18.60;78.50
4578;DHT22;2301;47.354;8.528;2023-05-07T02:10:20;18.60;78.20
4578;DHT22;2301;47.354;8.528;2023-05-07T02:12:48;18.60;78.40
4578;DHT22;2301;47.354;8.528;2023-05-07T02:15:15;18.60;78.50
4578;DHT22;2301;47.354;8.528;2023-05-07T02:18:00;18.60;78.40
4578;DHT22;2301;47.354;8.528;2023-05-07T02:20:27;18.60;78.60
4578;DHT22;2301;47.354;8.528;2023-05-07T02:22:54;18.60;78.60
4578;DHT22;2301;47.354;8.528;2023-05-07T02:25:21;18.50;78.60
4578;DHT22;2301;47.354;8.528;2023-05-07T02:27:49;18.50;78.70
4578;DHT22;2301;47.354;8.528;2023-05-07T02:30:16;18.50;78.80
4578;DHT22;2301;47.354;8.528;2023-05-07T02:32:43;18.50;78.70
4578;DHT22;2301;47.354;8.528;2023-05-07T02:35:10;18.50;78.60
4578;DHT22;2301;47.354;8.528;2023-05-07T02:37:37;18.40;78.70
4578;DHT22;2301;47.354;8.528;2023-05-07T02:40:05;18.50;79.00
4578;DHT22;2301;47.354;8.528;2023-05-07T02:42:32;18.40;78.80
4578;DHT22;2301;47.354;8.528;2023-05-07T02:45:01;18.40;79.00
4578;DHT22;2301;47.354;8.528;2023-05-07T02:47:28;18.40;79.20
4578;DHT22;2301;47.354;8.528;2023-05-07T02:49:55;18.30;79.20
4578;DHT22;2301;47.354;8.528;2023-05-07T02:52:22;18.40;79.40
4578;DHT22;2301;47.354;8.528;2023-05-07T02:54:49;18.30;79.30
4578;DHT22;2301;47.354;8.528;2023-05-07T02:57:16;18.40;79.60
4578;DHT22;2301;47.354;8.528;2023-05-07T02:59:43;18.30;79.50
4578;DHT22;2301;47.354;8.528;2023-05-07T03:02:12;18.30;80.20
4578;DHT22;2301;47.354;8.528;2023-05-07T03:04:40;18.40;80.20
4578;DHT22;2301;47.354;8.528;2023-05-07T03:07:07;18.30;79.90
4578;DHT22;2301;47.354;8.528;2023-05-07T03:09:34;18.30;79.80
4578;DHT22;2301;47.354;8.528;2023-05-07T03:12:01;18.20;79.80
4578;DHT22;2301;47.354;8.528;2023-05-07T03:14:28;18.30;80.30
4578;DHT22;2301;47.354;8.528;2023-05-07T03:16:55;18.30;80.20
4578;DHT22;2301;47.354;8.528;2023-05-07T03:19:24;18.20;80.00
4578;DHT22;2301;47.354;8.528;2023-05-07T03:21:51;18.30;80.40
4578;DHT22;2301;47.354;8.528;2023-05-07T03:24:17;18.20;79.80
4578;DHT22;2301;47.354;8.528;2023-05-07T03:26:44;18.20;80.00
4578;DHT22;2301;47.354;8.528;2023-05-07T03:29:11;18.20;80.00
4578;DHT22;2301;47.354;8.528;2023-05-07T03:31:38;18.20;79.60
4578;DHT22;2301;47.354;8.528;2023-05-07T03:34:05;18.10;80.00
4578;DHT22;2301;47.354;8.528;2023-05-07T03:36:33;18.10;80.10
4578;DHT22;2301;47.354;8.528;2023-05-07T03:39:00;18.20;80.10
4578;DHT22;2301;47.354;8.528;2023-05-07T03:41:27;18.10;80.10
4578;DHT22;2301;47.354;8.528;2023-05-07T03:43:55;18.10;80.10
4578;DHT22;2301;47.354;8.528;2023-05-07T03:46:22;18.20;80.20
4578;DHT22;2301;47.354;8.528;2023-05-07T03:48:51;18.20;80.30
4578;DHT22;2301;47.354;8.528;2023-05-07T03:51:18;18.20;79.90
4578;DHT22;2301;47.354;8.528;2023-05-07T03:53:46;18.10;79.80
4578;DHT22;2301;47.354;8.528;2023-05-07T03:56:13;18.10;79.70
4578;DHT22;2301;47.354;8.528;2023-05-07T03:58:40;18.10;79.80
4578;DHT22;2301;47.354;8.528;2023-05-07T04:01:07;18.10;80.00
4578;DHT22;2301;47.354;8.528;2023-05-07T04:03:35;18.00;79.40
4578;DHT22;2301;47.354;8.528;2023-05-07T04:06:02;18.00;79.70
4578;DHT22;2301;47.354;8.528;2023-05-07T04:08:29;18.00;80.30
4578;DHT22;2301;47.354;8.528;2023-05-07T04:10:58;18.00;80.40
4578;DHT22;2301;47.354;8.528;2023-05-07T04:13:25;18.00;80.00
4578;DHT22;2301;47.354;8.528;2023-05-07T04:15:52;18.00;80.90
4578;DHT22;2301;47.354;8.528;2023-05-07T04:18:19;18.00;80.20
4578;DHT22;2301;47.354;8.528;2023-05-07T04:20:46;18.00;80.50
4578;DHT22;2301;47.354;8.528;2023-05-07T04:23:15;18.00;80.70
4578;DHT22;2301;47.354;8.528;2023-05-07T04:25:47;18.00;80.70
4578;DHT22;2301;47.354;8.528;2023-05-07T04:28:18;18.00;80.50
4578;DHT22;2301;47.354;8.528;2023-05-07T04:30:44;18.00;80.50
4578;DHT22;2301;47.354;8.528;2023-05-07T04:33:11;18.00;80.60
4578;DHT22;2301;47.354;8.528;2023-05-07T04:35:40;18.10;80.70
4578;DHT22;2301;47.354;8.528;2023-05-07T04:38:07;18.10;80.30
4578;DHT22;2301;47.354;8.528;2023-05-07T04:40:35;18.10;79.90
4578;DHT22;2301;47.354;8.528;2023-05-07T04:43:02;18.10;80.00
4578;DHT22;2301;47.354;8.528;2023-05-07T04:45:31;18.10;80.10
4578;DHT22;2301;47.354;8.528;2023-05-07T04:47:58;18.10;79.80
4578;DHT22;2301;47.354;8.528;2023-05-07T04:50:25;18.10;79.80
4578;DHT22;2301;47.354;8.528;2023-05-07T04:52:52;18.10;79.80
4578;DHT22;2301;47.354;8.528;2023-05-07T04:55:19;18.10;80.00
4578;DHT22;2301;47.354;8.528;2023-05-07T04:57:46;18.10;80.60
4578;DHT22;2301;47.354;8.528;2023-05-07T05:00:13;18.10;81.00
4578;DHT22;2301;47.354;8.528;2023-05-07T05:02:42;18.20;81.00
4578;DHT22;2301;47.354;8.528;2023-05-07T05:05:09;18.20;80.60
4578;DHT22;2301;47.354;8.528;2023-05-07T05:07:36;18.20;80.30
4578;DHT22;2301;47.354;8.528;2023-05-07T05:10:05;18.20;80.20
4578;DHT22;2301;47.354;8.528;2023-05-07T05:12:33;18.20;80.10
4578;DHT22;2301;47.354;8.528;2023-05-07T05:15:00;18.10;80.00
4578;DHT22;2301;47.354;8.528;2023-05-07T05:17:26;18.20;80.30
4578;DHT22;2301;47.354;8.528;2023-05-07T05:19:55;18.20;80.20
4578;DHT22;2301;47.354;8.528;2023-05-07T05:22:22;18.20;80.30
4578;DHT22;2301;47.354;8.528;2023-05-07T05:24:48;18.20;80.00
4578;DHT22;2301;47.354;8.528;2023-05-07T05:27:15;18.20;79.90
4578;DHT22;2301;47.354;8.528;2023-05-07T05:29:42;18.30;80.00
4578;DHT22;2301;47.354;8.528;2023-05-07T05:32:09;18.30;80.20
4578;DHT22;2301;47.354;8.528;2023-05-07T05:34:36;18.30;80.00
4578;DHT22;2301;47.354;8.528;2023-05-07T05:37:05;18.40;79.80
4578;DHT22;2301;47.354;8.528;2023-05-07T05:39:32;18.40;79.60
4578;DHT22;2301;47.354;8.528;2023-05-07T05:41:58;18.40;79.60
4578;DHT22;2301;47.354;8.528;2023-05-07T05:44:25;18.50;79.80
4578;DHT22;2301;47.354;8.528;2023-05-07T05:46:52;18.50;79.50
4578;DHT22;2301;47.354;8.528;2023-05-07T05:49:20;18.50;79.20
4578;DHT22;2301;47.354;8.528;2023-05-07T05:51:47;18.50;79.50
4578;DHT22;2301;47.354;8.528;2023-05-07T05:54:16;18.50;79.50
4578;DHT22;2301;47.354;8.528;2023-05-07T05:56:43;18.50;79.30
4578;DHT22;2301;47.354;8.528;2023-05-07T05:59:10;18.50;80.00
4578;DHT22;2301;47.354;8.528;2023-05-07T06:01:37;18.60;79.90
4578;DHT22;2301;47.354;8.528;2023-05-07T06:04:07;18.60;79.70
4578;DHT22;2301;47.354;8.528;2023-05-07T06:06:33;18.70;79.40
4578;DHT22;2301;47.354;8.528;2023-05-07T06:09:00;18.70;79.30
4578;DHT22;2301;47.354;8.528;2023-05-07T06:11:29;18.80;79.10
4578;DHT22;2301;47.354;8.528;2023-05-07T06:13:56;18.90;79.00
4578;DHT22;2301;47.354;8.528;2023-05-07T06:16:24;18.90;78.50
4578;DHT22;2301;47.354;8.528;2023-05-07T06:18:51;19.00;78.40
4578;DHT22;2301;47.354;8.528;2023-05-07T06:21:18;19.00;78.30
4578;DHT22;2301;47.354;8.528;2023-05-07T06:23:45;19.10;78.50
4578;DHT22;2301;47.354;8.528;2023-05-07T06:26:12;19.30;78.60
4578;DHT22;2301;47.354;8.528;2023-05-07T06:28:40;19.40;77.80
4578;DHT22;2301;47.354;8.528;2023-05-07T06:31:11;19.50;76.80
4578;DHT22;2301;47.354;8.528;2023-05-07T06:33:39;19.40;75.70
4578;DHT22;2301;47.354;8.528;2023-05-07T06:36:06;19.30;75.60
4578;DHT22;2301;47.354;8.528;2023-05-07T06:38:33;19.30;75.90
4578;DHT22;2301;47.354;8.528;2023-05-07T06:41:00;19.20;75.50
4578;DHT22;2301;47.354;8.528;2023-05-07T06:43:27;19.20;75.30
4578;DHT22;2301;47.354;8.528;2023-05-07T06:45:55;19.10;75.50
4578;DHT22;2301;47.354;8.528;2023-05-07T06:48:22;19.20;76.00
4578;DHT22;2301;47.354;8.528;2023-05-07T06:50:50;19.10;76.10
4578;DHT22;2301;47.354;8.528;2023-05-07T06:53:17;19.10;76.10
4578;DHT22;2301;47.354;8.528;2023-05-07T06:55:44;19.10;76.40
4578;DHT22;2301;47.354;8.528;2023-05-07T06:58:11;19.20;76.30
4578;DHT22;2301;47.354;8.528;2023-05-07T07:00:38;19.20;76.00
4578;DHT22;2301;47.354;8.528;2023-05-07T07:03:07;19.30;76.30
4578;DHT22;2301;47.354;8.528;2023-05-07T07:05:34;19.40;76.50
4578;DHT22;2301;47.354;8.528;2023-05-07T07:08:01;19.50;75.80
4578;DHT22;2301;47.354;8.528;2023-05-07T07:10:28;19.60;75.50
4578;DHT22;2301;47.354;8.528;2023-05-07T07:12:55;19.60;75.50
4578;DHT22;2301;47.354;8.528;2023-05-07T07:15:22;19.70;75.50
4578;DHT22;2301;47.354;8.528;2023-05-07T07:17:50;19.80;75.00
4578;DHT22;2301;47.354;8.528;2023-05-07T07:20:19;19.90;75.00
4578;DHT22;2301;47.354;8.528;2023-05-07T07:22:45;20.00;74.70
4578;DHT22;2301;47.354;8.528;2023-05-07T07:25:12;20.00;74.00
4578;DHT22;2301;47.354;8.528;2023-05-07T07:27:39;20.10;73.50
4578;DHT22;2301;47.354;8.528;2023-05-07T07:30:07;20.20;73.40
4578;DHT22;2301;47.354;8.528;2023-05-07T07:32:34;20.40;73.10
4578;DHT22;2301;47.354;8.528;2023-05-07T07:35:01;20.50;72.70
4578;DHT22;2301;47.354;8.528;2023-05-07T07:37:29;20.70;72.20
4578;DHT22;2301;47.354;8.528;2023-05-07T07:39:56;20.80;71.00
4578;DHT22;2301;47.354;8.528;2023-05-07T07:42:23;20.80;70.40
4578;DHT22;2301;47.354;8.528;2023-05-07T07:44:50;20.80;70.10
4578;DHT22;2301;47.354;8.528;2023-05-07T07:47:17;20.90;69.90
4578;DHT22;2301;47.354;8.528;2023-05-07T07:49:44;20.90;69.20
4578;DHT22;2301;47.354;8.528;2023-05-07T07:52:11;21.00;69.20
4578;DHT22;2301;47.354;8.528;2023-05-07T07:54:39;21.00;69.00
4578;DHT22;2301;47.354;8.528;2023-05-07T07:57:06;21.10;69.30
4578;DHT22;2301;47.354;8.528;2023-05-07T07:59:33;21.10;68.10
4578;DHT22;2301;47.354;8.528;2023-05-07T08:01:59;21.10;67.70
4578;DHT22;2301;47.354;8.528;2023-05-07T08:04:26;21.20;67.70
4578;DHT22;2301;47.354;8.528;2023-05-07T08:06:53;21.10;67.30
4578;DHT22;2301;47.354;8.528;2023-05-07T08:09:21;21.20;67.30
4578;DHT22;2301;47.354;8.528;2023-05-07T08:11:49;21.20;66.60
4578;DHT22;2301;47.354;8.528;2023-05-07T08:14:17;21.30;67.10
4578;DHT22;2301;47.354;8.528;2023-05-07T08:16:44;21.40;66.50
4578;DHT22;2301;47.354;8.528;2023-05-07T08:19:10;21.50;65.80
4578;DHT22;2301;47.354;8.528;2023-05-07T08:21:39;21.50;65.20
4578;DHT22;2301;47.354;8.528;2023-05-07T08:24:06;21.50;64.70
4578;DHT22;2301;47.354;8.528;2023-05-07T08:26:33;21.50;64.70
4578;DHT22;2301;47.354;8.528;2023-05-07T08:29:02;21.50;64.60
4578;DHT22;2301;47.354;8.528;2023-05-07T08:31:29;21.60;64.80
4578;DHT22;2301;47.354;8.528;2023-05-07T08:33:57;21.60;64.90
4578;DHT22;2301;47.354;8.528;2023-05-07T08:36:24;21.60;65.20
4578;DHT22;2301;47.354;8.528;2023-05-07T08:38:52;21.50;65.20
4578;DHT22;2301;47.354;8.528;2023-05-07T08:41:19;21.40;66.50
4578;DHT22;2301;47.354;8.528;2023-05-07T08:43:48;21.50;67.70
4578;DHT22;2301;47.354;8.528;2023-05-07T08:46:21;21.60;68.40
4578;DHT22;2301;47.354;8.528;2023-05-07T08:48:48;21.70;68.80
4578;DHT22;2301;47.354;8.528;2023-05-07T08:51:16;21.80;68.60
4578;DHT22;2301;47.354;8.528;2023-05-07T08:53:44;22.00;68.30
4578;DHT22;2301;47.354;8.528;2023-05-07T08:56:12;22.10;67.40
4578;DHT22;2301;47.354;8.528;2023-05-07T08:58:40;22.30;67.80
4578;DHT22;2301;47.354;8.528;2023-05-07T09:01:09;22.50;66.40
4578;DHT22;2301;47.354;8.528;2023-05-07T09:03:38;22.50;65.30
4578;DHT22;2301;47.354;8.528;2023-05-07T09:06:05;22.60;65.70
4578;DHT22;2301;47.354;8.528;2023-05-07T09:08:33;22.80;65.80
4578;DHT22;2301;47.354;8.528;2023-05-07T09:11:01;22.90;65.00
4578;DHT22;2301;47.354;8.528;2023-05-07T09:13:28;23.00;64.90
4578;DHT22;2301;47.354;8.528;2023-05-07T09:15:55;23.20;63.90
4578;DHT22;2301;47.354;8.528;2023-05-07T09:18:24;23.40;64.10
4578;DHT22;2301;47.354;8.528;2023-05-07T09:20:52;23.50;62.10
4578;DHT22;2301;47.354;8.528;2023-05-07T09:23:20;23.70;61.90
4578;DHT22;2301;47.354;8.528;2023-05-07T09:25:47;23.80;61.20
4578;DHT22;2301;47.354;8.528;2023-05-07T09:28:14;23.90;61.10
4578;DHT22;2301;47.354;8.528;2023-05-07T09:30:41;23.90;60.50
4578;DHT22;2301;47.354;8.528;2023-05-07T09:33:08;23.70;60.30
4578;DHT22;2301;47.354;8.528;2023-05-07T09:35:35;23.50;60.40
4578;DHT22;2301;47.354;8.528;2023-05-07T09:38:03;23.30;61.50
4578;DHT22;2301;47.354;8.528;2023-05-07T09:40:31;23.10;61.00
4578;DHT22;2301;47.354;8.528;2023-05-07T09:43:09;22.90;61.50
4578;DHT22;2301;47.354;8.528;2023-05-07T09:45:37;22.90;62.20
4578;DHT22;2301;47.354;8.528;2023-05-07T09:48:05;22.80;62.70
4578;DHT22;2301;47.354;8.528;2023-05-07T09:50:40;22.80;62.10
4578;DHT22;2301;47.354;8.528;2023-05-07T09:53:13;22.90;62.90
4578;DHT22;2301;47.354;8.528;2023-05-07T09:55:42;22.90;61.90
4578;DHT22;2301;47.354;8.528;2023-05-07T09:58:09;22.90;61.40
4578;DHT22;2301;47.354;8.528;2023-05-07T10:00:39;22.90;61.50
4578;DHT22;2301;47.354;8.528;2023-05-07T10:03:09;23.00;62.40
4578;DHT22;2301;47.354;8.528;2023-05-07T10:05:37;23.10;62.50
4578;DHT22;2301;47.354;8.528;2023-05-07T10:08:05;23.20;61.50
4578;DHT22;2301;47.354;8.528;2023-05-07T10:10:34;23.10;60.80
4578;DHT22;2301;47.354;8.528;2023-05-07T10:13:02;23.20;60.30
4578;DHT22;2301;47.354;8.528;2023-05-07T10:15:31;23.10;59.70
4578;DHT22;2301;47.354;8.528;2023-05-07T10:17:59;23.30;59.60
4578;DHT22;2301;47.354;8.528;2023-05-07T10:20:26;23.20;59.40
4578;DHT22;2301;47.354;8.528;2023-05-07T10:22:55;23.00;59.10
4578;DHT22;2301;47.354;8.528;2023-05-07T10:25:25;22.90;59.30
4578;DHT22;2301;47.354;8.528;2023-05-07T10:27:56;22.80;59.20
4578;DHT22;2301;47.354;8.528;2023-05-07T10:30:29;22.60;59.10
4578;DHT22;2301;47.354;8.528;2023-05-07T10:33:03;22.60;59.60
4578;DHT22;2301;47.354;8.528;2023-05-07T10:35:37;22.50;59.70
4578;DHT22;2301;47.354;8.528;2023-05-07T10:38:06;22.40;59.90
4578;DHT22;2301;47.354;8.528;2023-05-07T10:40:33;22.40;60.00
4578;DHT22;2301;47.354;8.528;2023-05-07T10:43:03;22.30;59.90
4578;DHT22;2301;47.354;8.528;2023-05-07T10:45:31;22.30;60.10
4578;DHT22;2301;47.354;8.528;2023-05-07T10:48:09;22.40;60.40
4578;DHT22;2301;47.354;8.528;2023-05-07T10:50:36;22.40;60.90
4578;DHT22;2301;47.354;8.528;2023-05-07T10:53:24;22.50;60.90
4578;DHT22;2301;47.354;8.528;2023-05-07T10:58:51;22.60;62.10
4578;DHT22;2301;47.354;8.528;2023-05-07T11:01:49;22.60;61.40
4578;DHT22;2301;47.354;8.528;2023-05-07T11:04:16;22.70;60.70
4578;DHT22;2301;47.354;8.528;2023-05-07T11:09:59;22.80;60.80
4578;DHT22;2301;47.354;8.528;2023-05-07T11:12:54;23.00;60.30
4578;DHT22;2301;47.354;8.528;2023-05-07T11:15:40;23.00;59.50
4578;DHT22;2301;47.354;8.528;2023-05-07T11:18:09;23.10;59.30
4578;DHT22;2301;47.354;8.528;2023-05-07T11:21:00;23.10;58.90
4578;DHT22;2301;47.354;8.528;2023-05-07T11:26:46;23.50;59.20
4578;DHT22;2301;47.354;8.528;2023-05-07T11:29:17;23.60;59.30
4578;DHT22;2301;47.354;8.528;2023-05-07T11:31:48;23.60;58.50
4578;DHT22;2301;47.354;8.528;2023-05-07T11:34:21;23.70;58.90
4578;DHT22;2301;47.354;8.528;2023-05-07T11:36:48;23.60;58.00
4578;DHT22;2301;47.354;8.528;2023-05-07T11:39:26;23.70;58.80
4578;DHT22;2301;47.354;8.528;2023-05-07T11:41:53;23.80;59.30
4578;DHT22;2301;47.354;8.528;2023-05-07T11:44:20;24.00;58.10
4578;DHT22;2301;47.354;8.528;2023-05-07T11:46:49;24.00;57.80
4578;DHT22;2301;47.354;8.528;2023-05-07T11:49:16;24.00;57.80
4578;DHT22;2301;47.354;8.528;2023-05-07T11:51:44;24.10;58.10
4578;DHT22;2301;47.354;8.528;2023-05-07T11:54:15;24.10;58.30
4578;DHT22;2301;47.354;8.528;2023-05-07T11:56:44;24.10;59.00
4578;DHT22;2301;47.354;8.528;2023-05-07T11:59:17;24.20;58.60
4578;DHT22;2301;47.354;8.528;2023-05-07T12:01:46;24.40;59.50
4578;DHT22;2301;47.354;8.528;2023-05-07T12:04:19;24.50;60.10
4578;DHT22;2301;47.354;8.528;2023-05-07T12:06:46;24.70;60.50
4578;DHT22;2301;47.354;8.528;2023-05-07T12:09:13;24.80;60.40
4578;DHT22;2301;47.354;8.528;2023-05-07T12:11:45;25.00;60.10
4578;DHT22;2301;47.354;8.528;2023-05-07T12:14:12;25.10;59.30
4578;DHT22;2301;47.354;8.528;2023-05-07T12:16:41;25.20;58.30
4578;DHT22;2301;47.354;8.528;2023-05-07T12:19:09;25.20;58.20
4578;DHT22;2301;47.354;8.528;2023-05-07T12:21:39;25.30;57.80
4578;DHT22;2301;47.354;8.528;2023-05-07T12:24:08;25.30;57.00
4578;DHT22;2301;47.354;8.528;2023-05-07T12:26:37;25.40;56.60
4578;DHT22;2301;47.354;8.528;2023-05-07T12:29:06;25.40;56.70
4578;DHT22;2301;47.354;8.528;2023-05-07T12:31:33;25.60;56.60
4578;DHT22;2301;47.354;8.528;2023-05-07T12:34:00;25.70;56.60
4578;DHT22;2301;47.354;8.528;2023-05-07T12:36:36;25.80;56.60
4578;DHT22;2301;47.354;8.528;2023-05-07T12:39:06;25.90;56.30
4578;DHT22;2301;47.354;8.528;2023-05-07T12:41:51;26.00;55.80
4578;DHT22;2301;47.354;8.528;2023-05-07T12:44:18;26.00;55.30
4578;DHT22;2301;47.354;8.528;2023-05-07T12:46:46;25.90;55.30
4578;DHT22;2301;47.354;8.528;2023-05-07T12:49:13;25.90;55.40
4578;DHT22;2301;47.354;8.528;2023-05-07T12:51:40;25.80;55.70
4578;DHT22;2301;47.354;8.528;2023-05-07T12:54:09;25.80;56.00
4578;DHT22;2301;47.354;8.528;2023-05-07T12:56:36;25.70;56.30
4578;DHT22;2301;47.354;8.528;2023-05-07T12:59:04;25.60;56.10
4578;DHT22;2301;47.354;8.528;2023-05-07T13:01:33;25.50;56.20
4578;DHT22;2301;47.354;8.528;2023-05-07T13:04:01;25.40;56.30
4578;DHT22;2301;47.354;8.528;2023-05-07T13:06:30;25.30;56.40
4578;DHT22;2301;47.354;8.528;2023-05-07T13:08:57;25.20;56.90
4578;DHT22;2301;47.354;8.528;2023-05-07T13:11:37;25.10;57.40
4578;DHT22;2301;47.354;8.528;2023-05-07T13:14:04;25.10;57.70
4578;DHT22;2301;47.354;8.528;2023-05-07T13:16:31;25.00;57.80
4578;DHT22;2301;47.354;8.528;2023-05-07T13:18:58;25.00;58.40
4578;DHT22;2301;47.354;8.528;2023-05-07T13:21:25;25.00;59.00
4578;DHT22;2301;47.354;8.528;2023-05-07T13:23:53;25.00;59.90
4578;DHT22;2301;47.354;8.528;2023-05-07T13:26:20;25.00;60.50
4578;DHT22;2301;47.354;8.528;2023-05-07T13:28:48;25.10;60.10
4578;DHT22;2301;47.354;8.528;2023-05-07T13:31:18;25.10;59.90
4578;DHT22;2301;47.354;8.528;2023-05-07T13:33:46;25.10;59.90
4578;DHT22;2301;47.354;8.528;2023-05-07T13:36:14;25.10;59.50
4578;DHT22;2301;47.354;8.528;2023-05-07T13:38:44;25.10;59.10
4578;DHT22;2301;47.354;8.528;2023-05-07T13:41:11;24.90;59.30
4578;DHT22;2301;47.354;8.528;2023-05-07T13:43:39;24.80;59.50
4578;DHT22;2301;47.354;8.528;2023-05-07T13:46:08;24.60;59.60
4578;DHT22;2301;47.354;8.528;2023-05-07T13:48:35;24.50;59.70
4578;DHT22;2301;47.354;8.528;2023-05-07T13:51:02;24.40;60.00
4578;DHT22;2301;47.354;8.528;2023-05-07T13:53:29;24.30;60.00
4578;DHT22;2301;47.354;8.528;2023-05-07T13:55:56;24.20;60.50
4578;DHT22;2301;47.354;8.528;2023-05-07T13:58:23;24.10;60.70
4578;DHT22;2301;47.354;8.528;2023-05-07T14:00:49;24.00;60.90
4578;DHT22;2301;47.354;8.528;2023-05-07T14:03:18;24.00;60.80
4578;DHT22;2301;47.354;8.528;2023-05-07T14:05:45;23.80;60.20
4578;DHT22;2301;47.354;8.528;2023-05-07T14:08:12;23.70;59.90
4578;DHT22;2301;47.354;8.528;2023-05-07T14:10:39;23.70;60.20
4578;DHT22;2301;47.354;8.528;2023-05-07T14:13:06;23.60;60.80
4578;DHT22;2301;47.354;8.528;2023-05-07T14:15:33;23.50;60.50
4578;DHT22;2301;47.354;8.528;2023-05-07T14:18:00;23.40;59.90
4578;DHT22;2301;47.354;8.528;2023-05-07T14:20:29;23.30;59.90
4578;DHT22;2301;47.354;8.528;2023-05-07T14:22:56;23.20;59.80
4578;DHT22;2301;47.354;8.528;2023-05-07T14:25:23;23.00;60.00
4578;DHT22;2301;47.354;8.528;2023-05-07T14:27:50;22.90;60.50
4578;DHT22;2301;47.354;8.528;2023-05-07T14:30:17;22.80;60.80
4578;DHT22;2301;47.354;8.528;2023-05-07T14:32:44;22.70;61.20
4578;DHT22;2301;47.354;8.528;2023-05-07T14:35:11;22.70;61.40
4578;DHT22;2301;47.354;8.528;2023-05-07T14:37:39;22.60;61.80
4578;DHT22;2301;47.354;8.528;2023-05-07T14:40:08;22.50;62.60
4578;DHT22;2301;47.354;8.528;2023-05-07T14:42:35;22.40;63.00
4578;DHT22;2301;47.354;8.528;2023-05-07T14:45:03;22.40;64.40
4578;DHT22;2301;47.354;8.528;2023-05-07T14:47:33;22.30;64.70
4578;DHT22;2301;47.354;8.528;2023-05-07T14:50:00;22.20;65.20
4578;DHT22;2301;47.354;8.528;2023-05-07T14:52:27;22.10;66.00
4578;DHT22;2301;47.354;8.528;2023-05-07T14:54:56;22.10;66.40
4578;DHT22;2301;47.354;8.528;2023-05-07T14:57:23;22.00;67.00
4578;DHT22;2301;47.354;8.528;2023-05-07T14:59:50;21.90;67.40
4578;DHT22;2301;47.354;8.528;2023-05-07T15:02:17;21.80;68.00
4578;DHT22;2301;47.354;8.528;2023-05-07T15:04:44;21.80;68.30
4578;DHT22;2301;47.354;8.528;2023-05-07T15:07:14;21.80;68.40
4578;DHT22;2301;47.354;8.528;2023-05-07T15:09:42;21.80;68.90
4578;DHT22;2301;47.354;8.528;2023-05-07T15:12:10;21.70;69.60
4578;DHT22;2301;47.354;8.528;2023-05-07T15:14:38;21.60;69.70
4578;DHT22;2301;47.354;8.528;2023-05-07T15:17:05;21.60;70.20
4578;DHT22;2301;47.354;8.528;2023-05-07T15:19:32;21.50;70.90
4578;DHT22;2301;47.354;8.528;2023-05-07T15:22:00;21.40;71.00
4578;DHT22;2301;47.354;8.528;2023-05-07T15:24:28;21.40;71.80
4578;DHT22;2301;47.354;8.528;2023-05-07T15:26:55;21.30;71.80
4578;DHT22;2301;47.354;8.528;2023-05-07T15:29:26;21.30;72.20
4578;DHT22;2301;47.354;8.528;2023-05-07T15:31:52;21.20;72.80
4578;DHT22;2301;47.354;8.528;2023-05-07T15:34:26;21.10;72.80
4578;DHT22;2301;47.354;8.528;2023-05-07T15:36:55;21.00;73.50
4578;DHT22;2301;47.354;8.528;2023-05-07T15:39:22;20.90;73.60
4578;DHT22;2301;47.354;8.528;2023-05-07T15:41:49;20.90;73.60
4578;DHT22;2301;47.354;8.528;2023-05-07T15:44:16;20.90;73.80
4578;DHT22;2301;47.354;8.528;2023-05-07T15:46:45;20.90;74.00
4578;DHT22;2301;47.354;8.528;2023-05-07T15:49:12;20.90;74.10
4578;DHT22;2301;47.354;8.528;2023-05-07T15:51:38;20.90;74.20
4578;DHT22;2301;47.354;8.528;2023-05-07T15:54:05;20.90;74.60
4578;DHT22;2301;47.354;8.528;2023-05-07T15:56:32;20.90;75.10
4578;DHT22;2301;47.354;8.528;2023-05-07T15:58:59;20.90;76.30
4578;DHT22;2301;47.354;8.528;2023-05-07T16:01:26;20.80;76.40
4578;DHT22;2301;47.354;8.528;2023-05-07T16:03:55;20.80;76.40
4578;DHT22;2301;47.354;8.528;2023-05-07T16:06:22;20.80;76.80
4578;DHT22;2301;47.354;8.528;2023-05-07T16:08:49;20.80;76.90
4578;DHT22;2301;47.354;8.528;2023-05-07T16:11:16;20.70;77.60
4578;DHT22;2301;47.354;8.528;2023-05-07T16:13:43;20.70;77.50
4578;DHT22;2301;47.354;8.528;2023-05-07T16:16:10;20.60;77.80
4578;DHT22;2301;47.354;8.528;2023-05-07T16:18:37;20.60;78.20